createdAt,value
2023-03-18T00:01:07.606Z,49.84
2023-03-18T00:03:40.607Z,49.94
2023-03-18T00:06:16.879Z,49.68
2023-03-18T00:08:50.847Z,49.63
2023-03-18T00:11:24.987Z,49.47
2023-03-18T00:13:57.487Z,49.62
2023-03-18T00:16:30.604Z,49.61
2023-03-18T00:19:04.179Z,49.85
2023-03-18T00:21:37.259Z,49.85
2023-03-18T00:24:11.972Z,49.79
2023-03-18T00:26:42.828Z,49.85
2023-03-18T00:29:15.565Z,49.98
2023-03-18T00:31:49.845Z,50.22
2023-03-18T00:34:22.543Z,49.94
2023-03-18T00:36:57.303Z,50.15
2023-03-18T00:39:33.309Z,49.95
2023-03-18T00:42:10.829Z,50.16
2023-03-18T00:44:45.237Z,50.22
2023-03-18T00:47:18.130Z,50.14
2023-03-18T00:49:52.638Z,50.08
2023-03-18T00:52:27.635Z,50.12
2023-03-18T00:55:00.791Z,50.37
2023-03-18T00:57:34.482Z,50.63
2023-03-18T01:00:11.522Z,50.62
2023-03-18T01:02:44.322Z,50.84
2023-03-18T01:05:17.859Z,50.71
2023-03-18T01:07:52.636Z,50.61
2023-03-18T01:10:25.765Z,50.54
2023-03-18T01:12:58.532Z,50.71
2023-03-18T01:15:31.485Z,50.83
2023-03-18T01:18:04.912Z,50.91
2023-03-18T01:20:38.208Z,50.90
2023-03-18T01:23:10.955Z,50.82
2023-03-18T01:25:44.766Z,50.89
2023-03-18T01:28:19.908Z,50.74
2023-03-18T01:30:54.083Z,50.68
2023-03-18T01:33:29.953Z,50.80
2023-03-18T01:36:05.158Z,50.62
2023-03-18T01:38:39.018Z,50.80
2023-03-18T01:41:16.725Z,50.63
2023-03-18T01:43:49.848Z,50.84
2023-03-18T01:46:39.201Z,50.80
2023-03-18T01:49:17.694Z,50.60
2023-03-18T01:51:56.716Z,50.55
2023-03-18T01:54:33.419Z,50.73
2023-03-18T01:57:07.688Z,50.58
2023-03-18T01:59:43.355Z,50.62
2023-03-18T02:02:18.552Z,50.66
2023-03-18T02:04:55.142Z,50.44
2023-03-18T02:07:32.728Z,50.51
2023-03-18T02:10:11.284Z,50.49
2023-03-18T02:12:48.698Z,50.64
2023-03-18T02:15:28.335Z,50.47
2023-03-18T02:18:06.284Z,50.62
2023-03-18T02:20:54.043Z,50.44
2023-03-18T02:23:39.246Z,50.72
2023-03-18T02:26:23.357Z,50.47
2023-03-18T02:28:59.853Z,50.27
2023-03-18T02:31:33.254Z,50.51
2023-03-18T02:34:10.998Z,50.72
2023-03-18T02:36:46.129Z,50.69
2023-03-18T02:39:19.612Z,50.16
2023-03-18T02:41:53.899Z,50.41
2023-03-18T02:44:29.549Z,50.27
2023-03-18T02:47:26.140Z,50.48
2023-03-18T02:49:59.678Z,50.69
2023-03-18T02:52:33.679Z,50.57
2023-03-18T02:55:11.930Z,50.48
2023-03-18T02:57:46.727Z,50.45
2023-03-18T03:00:19.064Z,50.31
2023-03-18T03:02:52.560Z,50.54
2023-03-18T03:05:27.761Z,50.80
2023-03-18T03:08:03.326Z,50.51
2023-03-18T03:10:38.608Z,50.45
2023-03-18T03:13:11.698Z,50.62
2023-03-18T03:15:45.403Z,50.36
2023-03-18T03:18:18.375Z,50.40
2023-03-18T03:20:51.237Z,50.57
2023-03-18T03:23:26.452Z,50.55
2023-03-18T03:26:00.061Z,50.37
2023-03-18T03:28:35.570Z,49.97
2023-03-18T03:31:09.306Z,50.03
2023-03-18T03:33:43.825Z,50.10
2023-03-18T03:36:18.470Z,50.09
2023-03-18T03:38:51.385Z,50.04
2023-03-18T03:41:24.075Z,50.00
2023-03-18T03:43:56.645Z,49.71
2023-03-18T03:46:29.625Z,49.81
2023-03-18T03:49:03.554Z,49.80
2023-03-18T03:51:36.764Z,49.70
2023-03-18T03:54:09.705Z,49.79
2023-03-18T03:56:44.026Z,49.78
2023-03-18T03:59:17.422Z,49.82
2023-03-18T04:02:13.795Z,49.89
2023-03-18T04:04:47.082Z,49.82
2023-03-18T04:07:27.953Z,50.09
2023-03-18T04:10:03.097Z,49.82
2023-03-18T04:12:36.378Z,49.69
2023-03-18T04:15:12.249Z,49.59
2023-03-18T04:17:45.464Z,49.63
2023-03-18T04:20:22.697Z,49.53
2023-03-18T04:22:56.258Z,49.56
2023-03-18T04:25:30.412Z,49.96
2023-03-18T04:28:05.189Z,49.60
2023-03-18T04:30:37.428Z,49.78
2023-03-18T04:33:14.521Z,49.95
2023-03-18T04:35:48.861Z,49.95
2023-03-18T04:38:21.782Z,50.00
2023-03-18T04:40:56.269Z,49.83
2023-03-18T04:43:28.787Z,49.55
2023-03-18T04:46:02.291Z,49.49
2023-03-18T04:48:36.036Z,49.51
2023-03-18T04:51:10.613Z,49.52
2023-03-18T04:53:43.584Z,49.53
2023-03-18T04:56:16.612Z,49.47
2023-03-18T04:58:54.284Z,49.18
2023-03-18T05:01:31.946Z,48.97
2023-03-18T05:04:04.788Z,48.94
2023-03-18T05:06:46.115Z,49.21
2023-03-18T05:09:23.006Z,49.26
2023-03-18T05:11:56.196Z,49.17
2023-03-18T05:14:43.277Z,49.02
2023-03-18T05:17:20.724Z,48.92
2023-03-18T05:20:00.396Z,49.14
2023-03-18T05:22:34.986Z,49.29
2023-03-18T05:25:16.707Z,49.15
2023-03-18T05:27:50.287Z,49.44
2023-03-18T05:30:32.458Z,49.34
2023-03-18T05:33:06.689Z,49.23
2023-03-18T05:35:49.057Z,49.36
2023-03-18T05:38:24.272Z,49.51
2023-03-18T05:40:58.323Z,49.38
2023-03-18T05:43:39.984Z,49.31
2023-03-18T05:46:13.946Z,49.55
2023-03-18T05:49:02.484Z,49.64
2023-03-18T05:51:41.268Z,49.68
2023-03-18T05:54:16.821Z,49.78
2023-03-18T05:56:53.475Z,49.94
2023-03-18T05:59:27.074Z,49.69
2023-03-18T06:02:03.716Z,49.76
2023-03-18T06:04:37.387Z,49.75
2023-03-18T06:07:12.996Z,49.71
2023-03-18T06:09:46.835Z,49.40
2023-03-18T06:12:23.228Z,49.43
2023-03-18T06:14:56.420Z,49.24
2023-03-18T06:17:30.646Z,49.29
2023-03-18T06:20:04.122Z,49.46
2023-03-18T06:22:39.191Z,49.34
2023-03-18T06:25:14.962Z,49.31
2023-03-18T06:27:48.025Z,49.27
2023-03-18T06:30:22.224Z,49.19
2023-03-18T06:32:56.601Z,49.12
2023-03-18T06:35:32.989Z,49.18
2023-03-18T06:38:08.867Z,49.14
2023-03-18T06:40:44.324Z,49.07
2023-03-18T06:43:17.392Z,49.23
2023-03-18T06:45:52.940Z,48.84
2023-03-18T06:48:29.661Z,48.48
2023-03-18T06:51:04.245Z,48.49
2023-03-18T06:53:42.386Z,48.37
2023-03-18T06:56:16.478Z,48.20
2023-03-18T06:58:57.033Z,48.06
2023-03-18T07:01:33.138Z,48.26
2023-03-18T07:04:06.986Z,48.22
2023-03-18T07:06:40.540Z,48.27
2023-03-18T07:09:15.445Z,48.14
2023-03-18T07:11:48.902Z,47.86
2023-03-18T07:14:25.076Z,47.69
2023-03-18T07:17:01.156Z,47.21
2023-03-18T07:19:35.860Z,47.00
2023-03-18T07:22:11.812Z,47.37
2023-03-18T07:24:46.344Z,47.02
2023-03-18T07:27:19.933Z,47.17
2023-03-18T07:29:53.303Z,46.84
2023-03-18T07:32:25.755Z,47.15
2023-03-18T07:35:00.106Z,47.03
2023-03-18T07:37:33.430Z,46.97
2023-03-18T07:40:06.881Z,46.48
2023-03-18T07:42:39.745Z,46.62
2023-03-18T07:45:13.716Z,46.49
2023-03-18T07:58:12.412Z,46.23
2023-03-18T08:00:47.726Z,46.56
2023-03-18T08:03:20.847Z,46.11
2023-03-18T08:05:55.084Z,46.00
2023-03-18T08:08:28.056Z,45.74
2023-03-18T08:11:03.729Z,45.65
2023-03-18T08:13:36.232Z,45.74
2023-03-18T08:16:10.658Z,46.24
2023-03-18T08:18:46.818Z,46.15
2023-03-18T08:21:18.210Z,46.24
2023-03-18T08:23:51.631Z,46.09
2023-03-18T08:26:24.186Z,46.15
2023-03-18T08:28:57.570Z,45.74
2023-03-18T08:31:31.772Z,45.73
2023-03-18T08:34:06.527Z,45.89
2023-03-18T08:36:39.812Z,45.77
2023-03-18T08:39:12.493Z,46.19
2023-03-18T08:41:45.886Z,46.01
2023-03-18T08:44:18.346Z,45.70
2023-03-18T08:46:51.362Z,45.55
2023-03-18T08:49:24.782Z,45.26
2023-03-18T08:51:57.575Z,45.20
2023-03-18T08:54:30.186Z,45.23
2023-03-18T08:57:02.905Z,44.88
2023-03-18T08:59:36.642Z,45.07
2023-03-18T09:02:14.840Z,44.97
2023-03-18T09:04:48.257Z,44.95
2023-03-18T09:07:21.035Z,45.00
2023-03-18T09:09:55.452Z,44.84
2023-03-18T09:12:28.875Z,44.47
2023-03-18T09:15:02.466Z,44.59
2023-03-18T09:17:53.432Z,44.14
2023-03-18T09:20:29.168Z,43.96
2023-03-18T09:23:02.679Z,44.20
2023-03-18T09:25:36.087Z,43.77
2023-03-18T09:28:08.686Z,44.69
2023-03-18T09:30:41.830Z,44.36
2023-03-18T09:33:14.825Z,44.12
2023-03-18T09:35:47.223Z,44.26
2023-03-18T09:38:21.082Z,44.70
2023-03-18T09:41:06.918Z,44.65
2023-03-18T09:43:59.468Z,44.15
2023-03-18T09:46:40.886Z,44.28
2023-03-18T09:49:28.264Z,43.79
2023-03-18T09:52:15.574Z,43.54
2023-03-18T09:54:55.482Z,43.70
2023-03-18T09:57:32.515Z,43.34
2023-03-18T10:00:11.708Z,43.61
2023-03-18T10:02:49.017Z,43.61
2023-03-18T10:05:28.587Z,43.61
2023-03-18T10:08:07.316Z,43.59
2023-03-18T10:10:46.419Z,43.72
2023-03-18T10:13:24.036Z,43.27
2023-03-18T10:15:58.932Z,43.12
2023-03-18T10:18:35.677Z,42.99
2023-03-18T10:21:22.159Z,43.25
2023-03-18T10:24:07.494Z,43.55
2023-03-18T10:26:48.880Z,43.80
2023-03-18T10:29:42.072Z,43.78
2023-03-18T10:32:27.839Z,42.97
2023-03-18T10:35:09.502Z,42.97
2023-03-18T10:37:57.405Z,43.02
2023-03-18T10:40:34.365Z,42.84
2023-03-18T10:43:15.138Z,43.07
2023-03-18T10:45:53.818Z,42.53
2023-03-18T10:48:33.743Z,42.58
2023-03-18T10:51:14.586Z,42.56
2023-03-18T10:53:54.859Z,42.39
2023-03-18T10:56:27.660Z,42.04
2023-03-18T10:59:00.136Z,41.83
2023-03-18T11:01:33.328Z,42.13
2023-03-18T11:04:14.346Z,41.69
2023-03-18T11:06:50.109Z,42.05
2023-03-18T11:09:29.882Z,42.09
2023-03-18T11:12:07.146Z,42.15
2023-03-18T11:14:40.473Z,42.12
2023-03-18T11:17:23.845Z,41.83
2023-03-18T11:20:08.977Z,41.68
2023-03-18T11:22:52.303Z,41.36
2023-03-18T11:25:27.102Z,41.79
2023-03-18T11:28:00.490Z,41.35
2023-03-18T11:30:37.508Z,40.74
2023-03-18T11:33:17.914Z,41.13
2023-03-18T11:35:56.948Z,41.42
2023-03-18T11:38:32.730Z,40.81
2023-03-18T11:41:19.018Z,40.40
2023-03-18T11:44:02.063Z,39.93
2023-03-18T11:46:40.733Z,40.58
2023-03-18T11:49:17.983Z,39.79
2023-03-18T11:52:00.753Z,39.97
2023-03-18T11:55:04.416Z,39.73
2023-03-18T11:57:51.328Z,39.63
2023-03-18T12:00:35.359Z,38.76
2023-03-18T12:03:33.408Z,38.43
2023-03-18T12:06:14.871Z,38.99
2023-03-18T12:09:01.006Z,38.89
2023-03-18T12:11:53.581Z,39.81
2023-03-18T12:14:34.754Z,38.62
2023-03-18T12:17:18.993Z,39.27
2023-03-18T12:20:13.693Z,39.19
2023-03-18T12:23:00.665Z,38.70
2023-03-18T12:25:59.320Z,38.60
2023-03-18T12:28:41.843Z,38.57
2023-03-18T12:31:36.115Z,39.12
2023-03-18T12:34:27.366Z,39.25
2023-03-18T12:37:21.349Z,38.55
2023-03-18T12:40:27.281Z,39.28
2023-03-18T12:43:24.285Z,39.84
2023-03-18T12:46:05.924Z,39.31
2023-03-18T12:48:46.950Z,39.40
2023-03-18T12:51:26.693Z,38.66
2023-03-18T12:54:10.019Z,38.92
2023-03-18T12:56:53.050Z,39.36
2023-03-18T12:59:34.356Z,39.73
2023-03-18T13:02:21.435Z,39.62
2023-03-18T13:04:59.170Z,39.81
2023-03-18T13:07:43.441Z,39.98
2023-03-18T13:10:24.921Z,40.38
2023-03-18T13:13:01.350Z,40.49
2023-03-18T13:15:43.363Z,40.24
2023-03-18T13:18:22.402Z,40.33
2023-03-18T13:21:00.094Z,39.98
2023-03-18T13:24:00.811Z,40.86
2023-03-18T13:26:49.546Z,40.67
2023-03-18T13:29:32.408Z,41.33
2023-03-18T13:32:20.372Z,41.56
2023-03-18T13:35:36.613Z,40.99
2023-03-18T13:38:19.552Z,41.03
2023-03-18T13:41:06.138Z,41.47
2023-03-18T13:43:42.981Z,41.68
2023-03-18T13:46:24.769Z,40.92
2023-03-18T13:49:01.906Z,41.51
2023-03-18T13:51:59.240Z,41.26
2023-03-18T13:54:41.045Z,40.73
2023-03-18T13:57:48.108Z,41.08
2023-03-18T14:00:33.185Z,40.99
2023-03-18T14:03:17.751Z,41.43
2023-03-18T14:05:51.829Z,40.64
2023-03-18T14:08:46.290Z,41.19
2023-03-18T14:11:52.836Z,41.00
2023-03-18T14:14:58.625Z,41.17
2023-03-18T14:17:37.489Z,41.08
2023-03-18T14:20:27.393Z,40.81
2023-03-18T14:23:37.116Z,41.18
2023-03-18T14:26:20.598Z,41.68
2023-03-18T14:29:16.721Z,41.72
2023-03-18T14:32:09.131Z,42.00
2023-03-18T14:34:59.335Z,41.93
2023-03-18T14:37:34.345Z,41.80
2023-03-18T14:40:18.858Z,41.63
2023-03-18T14:43:00.494Z,42.41
2023-03-18T14:45:38.031Z,42.18
2023-03-18T14:48:20.586Z,42.69
2023-03-18T14:50:56.114Z,42.35
2023-03-18T14:53:35.683Z,43.39
2023-03-18T14:56:18.294Z,43.85
2023-03-18T14:58:54.440Z,43.24
2023-03-18T15:01:35.788Z,43.53
2023-03-18T15:04:17.415Z,43.50
2023-03-18T15:06:51.580Z,43.92
2023-03-18T15:09:28.008Z,44.50
2023-03-18T15:12:00.710Z,44.97
2023-03-18T15:14:35.810Z,45.31
2023-03-18T15:17:15.961Z,45.44
2023-03-18T15:19:49.368Z,45.75
2023-03-18T15:22:28.237Z,45.73
2023-03-18T15:25:04.975Z,46.67
2023-03-18T15:27:39.506Z,46.55
2023-03-18T15:30:28.590Z,45.46
2023-03-18T15:33:09.987Z,45.80
2023-03-18T15:35:55.546Z,46.46
2023-03-18T15:38:33.678Z,46.89
2023-03-18T15:41:12.364Z,47.83
2023-03-18T15:43:48.118Z,48.53
2023-03-18T15:46:27.426Z,48.54
2023-03-18T15:49:05.789Z,48.20
2023-03-18T15:51:45.191Z,47.72
2023-03-18T15:54:28.025Z,47.99
2023-03-18T15:57:11.839Z,47.66
2023-03-18T15:59:47.366Z,47.46
2023-03-18T16:02:20.734Z,47.98
2023-03-18T16:04:53.712Z,48.28
2023-03-18T16:07:28.498Z,47.72
2023-03-18T16:10:00.132Z,47.83
2023-03-18T16:12:33.328Z,48.58
2023-03-18T16:15:07.961Z,48.80
2023-03-18T16:17:40.551Z,48.77
2023-03-18T16:20:18.834Z,48.74
2023-03-18T16:22:52.145Z,48.75
2023-03-18T16:25:26.236Z,48.76
2023-03-18T16:28:02.108Z,48.05
2023-03-18T16:30:36.206Z,48.27
2023-03-18T16:33:14.195Z,48.21
2023-03-18T16:35:47.682Z,47.80
2023-03-18T16:38:20.968Z,47.82
2023-03-18T16:40:54.911Z,47.92
2023-03-18T16:43:29.183Z,47.78
2023-03-18T16:46:04.138Z,47.40
2023-03-18T16:48:37.043Z,53.88
2023-03-18T16:51:09.791Z,49.20
2023-03-18T16:53:44.082Z,48.16
2023-03-18T16:56:22.873Z,49.10
2023-03-18T16:58:57.817Z,48.61
2023-03-18T17:01:31.437Z,49.49
2023-03-18T17:04:15.748Z,49.24
2023-03-18T17:06:48.524Z,48.49
2023-03-18T17:09:23.713Z,48.60
2023-03-18T17:12:02.119Z,47.82
2023-03-18T17:14:40.052Z,48.20
2023-03-18T17:17:22.162Z,48.50
2023-03-18T17:19:55.585Z,48.90
2023-03-18T17:22:30.598Z,48.33
2023-03-18T17:25:03.486Z,47.38
2023-03-18T17:27:41.126Z,47.26
2023-03-18T17:30:21.748Z,47.31
2023-03-18T17:32:56.213Z,47.33
2023-03-18T17:35:28.765Z,48.33
2023-03-18T17:38:01.302Z,49.70
2023-03-18T17:40:33.757Z,49.01
2023-03-18T17:43:07.842Z,48.87
2023-03-18T17:45:41.959Z,49.49
2023-03-18T17:48:21.461Z,49.49
2023-03-18T17:50:57.472Z,50.01
2023-03-18T17:53:34.966Z,57.16
2023-03-18T17:56:14.168Z,54.01
2023-03-18T17:58:48.706Z,49.70
2023-03-18T18:01:24.384Z,48.86
2023-03-18T18:03:58.576Z,49.20
2023-03-18T18:06:32.370Z,48.87
2023-03-18T18:09:06.620Z,49.80
2023-03-18T18:11:44.446Z,50.30
2023-03-18T18:14:21.088Z,50.20
2023-03-18T18:16:56.153Z,50.46
2023-03-18T18:19:29.029Z,50.39
2023-03-18T18:22:03.933Z,50.62
2023-03-18T18:24:36.640Z,50.96
2023-03-18T18:27:15.555Z,50.78
2023-03-18T18:29:48.487Z,50.88
2023-03-18T18:32:22.748Z,50.95
2023-03-18T18:34:55.146Z,50.66
2023-03-18T18:37:27.676Z,50.90
2023-03-18T18:40:00.170Z,50.95
2023-03-18T18:42:32.678Z,50.86
2023-03-18T18:45:05.810Z,50.94
2023-03-18T18:47:39.617Z,50.93
2023-03-18T18:50:18.508Z,50.99
2023-03-18T18:52:51.322Z,51.13
2023-03-18T18:55:23.794Z,51.30
2023-03-18T18:57:57.360Z,51.61
2023-03-18T19:00:30.252Z,51.50
2023-03-18T19:03:03.324Z,51.72
2023-03-18T19:05:36.279Z,51.68
2023-03-18T19:08:13.494Z,51.79
2023-03-18T19:10:45.959Z,51.92
2023-03-18T19:13:18.744Z,51.82
2023-03-18T19:15:51.573Z,51.61
2023-03-18T19:18:26.333Z,51.91
2023-03-18T19:21:00.121Z,51.86
2023-03-18T19:23:35.935Z,51.72
2023-03-18T19:26:13.476Z,51.82
2023-03-18T19:28:59.734Z,52.14
2023-03-18T19:31:35.625Z,52.21
2023-03-18T19:34:16.869Z,52.20
2023-03-18T19:36:53.999Z,52.22
2023-03-18T19:39:28.732Z,52.21
2023-03-18T19:42:01.303Z,51.93
2023-03-18T19:44:33.885Z,52.15
2023-03-18T19:47:06.484Z,52.62
2023-03-18T19:49:39.534Z,52.51
2023-03-18T19:52:20.815Z,52.15
2023-03-18T19:54:54.783Z,52.39
2023-03-18T19:57:30.148Z,52.31
2023-03-18T20:00:05.960Z,52.21
2023-03-18T20:02:40.957Z,52.10
2023-03-18T20:05:22.011Z,51.99
2023-03-18T20:07:54.904Z,52.63
2023-03-18T20:10:27.462Z,53.10
2023-03-18T20:12:59.955Z,53.42
2023-03-18T20:15:33.748Z,53.12
2023-03-18T20:18:07.495Z,52.48
2023-03-18T20:20:40.033Z,52.65
2023-03-18T20:23:18.969Z,52.94
2023-03-18T20:25:54.101Z,53.05
2023-03-18T20:28:30.238Z,52.92
2023-03-18T20:31:05.245Z,53.30
2023-03-18T20:33:37.725Z,53.64
2023-03-18T20:36:19.163Z,53.83
2023-03-18T20:38:52.847Z,53.61
2023-03-18T20:41:26.714Z,53.70
2023-03-18T20:43:59.162Z,53.72
2023-03-18T20:46:32.270Z,53.85
2023-03-18T20:49:05.213Z,53.60
2023-03-18T20:51:40.980Z,53.21
2023-03-18T20:54:20.183Z,53.34
2023-03-18T20:56:52.981Z,53.67
2023-03-18T20:59:25.696Z,53.80
2023-03-18T21:01:59.141Z,53.41
2023-03-18T21:04:31.765Z,53.31
2023-03-18T21:07:04.663Z,53.19
2023-03-18T21:09:39.778Z,53.22
2023-03-18T21:12:17.302Z,53.55
2023-03-18T21:14:50.644Z,53.82
2023-03-18T21:17:26.651Z,53.79
2023-03-18T21:20:11.200Z,54.27
2023-03-18T21:22:56.594Z,54.54
2023-03-18T21:25:32.025Z,54.07
2023-03-18T21:28:05.177Z,54.32
2023-03-18T21:30:37.861Z,54.25
2023-03-18T21:33:21.608Z,54.64
2023-03-18T21:35:57.226Z,54.81
2023-03-18T21:38:31.664Z,54.73
2023-03-18T21:41:05.025Z,54.70
2023-03-18T21:43:39.918Z,54.52
2023-03-18T21:46:17.011Z,54.20
2023-03-18T21:48:49.993Z,54.43
2023-03-18T21:51:38.482Z,54.27
2023-03-18T21:54:19.888Z,54.58
2023-03-18T21:56:52.358Z,54.39
2023-03-18T21:59:24.951Z,54.52
2023-03-18T22:01:57.906Z,54.35
2023-03-18T22:04:30.718Z,54.71
2023-03-18T22:07:03.149Z,54.72
2023-03-18T22:09:35.545Z,54.16
2023-03-18T22:12:12.815Z,54.09
2023-03-18T22:14:45.436Z,54.19
2023-03-18T22:17:28.892Z,53.96
2023-03-18T22:20:02.968Z,53.92
2023-03-18T22:22:38.875Z,53.77
2023-03-18T22:25:25.970Z,53.80
2023-03-18T22:27:58.647Z,53.69
2023-03-18T22:30:34.502Z,53.78
2023-03-18T22:33:08.475Z,53.75
2023-03-18T22:35:41.396Z,54.35
2023-03-18T22:38:17.071Z,54.71
2023-03-18T22:40:52.789Z,54.92
2023-03-18T22:43:34.753Z,54.96
2023-03-18T22:46:10.240Z,54.99
2023-03-18T22:48:43.353Z,55.07
2023-03-18T22:51:24.742Z,54.88
2023-03-18T22:53:57.711Z,54.86
2023-03-18T22:56:32.298Z,54.87
2023-03-18T22:59:04.789Z,54.99
2023-03-18T23:01:38.086Z,54.98
2023-03-18T23:04:12.478Z,55.09
2023-03-18T23:06:45.262Z,55.07
2023-03-18T23:09:17.648Z,55.52
2023-03-18T23:11:50.401Z,55.80
2023-03-18T23:14:22.839Z,55.72
2023-03-18T23:16:55.560Z,55.73
2023-03-18T23:19:28.223Z,55.90
2023-03-18T23:22:00.661Z,56.09
2023-03-18T23:24:33.301Z,56.18
2023-03-18T23:27:05.994Z,56.27
2023-03-18T23:29:38.399Z,56.24
2023-03-18T23:32:12.080Z,56.26
2023-03-18T23:34:45.131Z,56.33
2023-03-18T23:37:19.221Z,56.33
2023-03-18T23:39:51.776Z,56.34
2023-03-18T23:42:24.469Z,56.63
2023-03-18T23:44:57.721Z,56.54
2023-03-18T23:47:31.449Z,56.49
2023-03-18T23:50:05.597Z,56.79
2023-03-18T23:52:40.259Z,56.83
2023-03-18T23:55:31.076Z,57.00
2023-03-18T23:58:05.416Z,57.06
